Weather observations for the past three days for
Fort Bridger WY
Metric (Imperial)
Date Time (mdt) Wind (kph) Vis. (km) Weather Sky Cond. Temperature (ºC) Relative Humidity Wind Chill (°C) Heat Index (°C) Pressure Precipitation (cm)
Air Dwpt 6 hour altimeter (cm) sea level (mb) 1 hr 3 hr 6 hr
Max. Min.
05 16:35 W 6 16.09 Overcast BKN016 OVC021 7.5 2.6 71% 75.95 0.0
05 16:15 W 9 16.09 Overcast OVC016 7.1 2.5 73% 6 75.97 0.0
05 15:55 NW 9 16.09 Overcast BKN014 OVC019 6.8 2.5 74% 5 76 0.0
05 15:35 Calm 16.09 Overcast OVC014 5.9 1.9 76% 76.02 0.0
05 15:15 Calm 16.09 Overcast BKN009 OVC013 6.4 3.7 83% 76.02 0.0
05 14:55 E 7 16.09 Overcast OVC009 4.7 2.8 88% 3 76.02 0.0
05 14:35 SE 6 16.09 Overcast OVC009 3.9 2.8 93% 76.07 0.0
05 14:15 E 9 16.09 Overcast BKN009 OVC012 3.7 3 95% 2 76.07 0.0
05 13:55 Calm 16.09 Overcast OVC007 4 2.2 88% 76.07 0.0
05 13:35 E 9 16.09 Overcast OVC007 3.9 2.9 93% 2 76.07 0.0
05 13:15 SE 11 16.09 Overcast BKN007 OVC012 4.1 3.5 96% 2 76.07 0.0
05 12:55 SE 13 16.09 Overcast OVC007 3.6 3.4 99% 1 76.1 0.0
05 12:35 SE 13 11.27 Overcast BKN003 OVC009 3.1 3.1 100% 0 76.1 0.0
05 12:15 E 11 0.40 Light Snow OVC003 2.2 2.2 100% -1 76.1 0.0
05 11:55 E 13 0.24 Light Snow OVC003 1.6 1.6 4 1 100% -2 76.1 0.0
05 11:35 E 11 0.40 Light Snow OVC003 1.1 1.1 100% -2 76.1 0.0
05 11:15 E 9 0.80 Light Snow OVC003 1 1 100% -2 76.1 0.0
05 10:55 E 13 0.40 Snow OVC003 1 1 100% -2 76.07 0.0
05 10:35 E 13 0.80 Light Snow OVC003 1 1 100% -2 76.1 0.0
05 10:15 NE 15 0.24 Light Snow OVC003 1 1 100% -3 76.1 0.0
05 09:55 NE 19 0.24 Light Snow OVC003 1.4 1.4 100% -3 76.1 0.0
05 09:35 NE 17 8.05 Light Rain BKN003 OVC009 2.3 2.2 99% -1 76.07 0.0
05 09:15 E 15 11.27 Light Snow BKN005 OVC011 2.5 2.1 97% -1 76.07 0.0
05 08:55 E 11 16.09 Overcast BKN005 BKN011 OVC024 2.6 2.1 97% -0 76.07 0.0
05 08:35 E 13 16.09 Light Rain SCT005 OVC026 2.6 2.1 97% -0 76.07 0.0
05 08:15 E 19 11.27 Unknown Precip OVC028 3.1 0.5 83% -1 76.05 0.0
05 07:55 E 17 11.27 Light Snow BKN028 OVC035 3.7 -0.6 74% 0 76.02 0.0
05 07:35 E 19 16.09 Overcast BKN026 OVC033 4 -1.1 70% 0 76.02 0.0
05 07:15 NE 15 16.09 Overcast OVC026 3.8 -1.1 71% 1 76.02 0.0
05 06:55 NE 17 16.09 Overcast OVC026 3.7 -1.2 71% 0 76.02 0.0
05 06:35 NE 11 16.09 Overcast OVC026 3.5 -1 73% 1 76 0.0
05 06:15 N 13 16.09 Overcast OVC026 3.2 -1.1 74% 0 76 0.0
05 05:55 N 9 16.09 Overcast OVC026 3 -1 10.5 2.9 75% 1 76 0.0
05 05:35 N 6 16.09 Mostly Cloudy BKN028 BKN065 2.9 -0.8 77% 75.97 0.0
05 05:15 E 9 16.09 Partly Cloudy SCT028 SCT065 3.5 -0.6 75% 1 75.95 0.0
05 04:55 E 17 16.09 Fair CLR 3.3 -0.5 76% -0 75.95 0.0
05 04:35 NE 11 16.09 Partly Cloudy SCT055 SCT070 3.3 -0.2 78% 1 75.97 0.0
05 04:15 NE 15 16.09 Overcast SCT047 BKN070 OVC080 4 0 75% 1 75.97 0.0
05 03:55 NE 13 16.09 Overcast BKN070 OVC085 4.4 0.2 74% 2 75.97 0.0
05 03:35 NE 13 16.09 Mostly Cloudy BKN070 BKN085 4.5 0.4 75% 2 75.95 0.0
05 03:15 NE 13 16.09 Partly Cloudy SCT070 4.5 0.5 76% 2 75.95 0.0
05 02:55 E 13 16.09 Fair CLR 5.3 0 69% 3 75.9 0.0
05 02:35 E 15 16.09 Fair CLR 5.9 -0.1 66% 3 75.92 0.0
05 02:15 SE 15 16.09 Fair CLR 7.4 0.1 60% 5 75.92 0.0
05 01:55 E 19 16.09 Fair CLR 8 0.1 58% 5 75.95 0.0
05 01:35 E 19 16.09 Mostly Cloudy SCT060 SCT070 BKN085 8.6 0.6 58% 6 75.95 0.0
05 01:15 SE 13 16.09 Overcast SCT050 BKN060 OVC070 9.5 1.2 57% 8 75.97 0.0
05 00:55 E 17 16.09 Overcast SCT060 OVC070 9.7 1.5 57% 8 75.97 0.0
05 00:35 SE 22 16.09 Overcast OVC080 9.8 1.2 55% 7 75.95 0.0
05 00:15 SE 11 16.09 Overcast BKN080 OVC100 9.8 0.6 53% 8 75.95 0.0
04 23:55 SE 19 16.09 Overcast BKN090 OVC095 10.5 0.5 19.9 10.5 50% 75.95 0.0
04 23:35 E 13 16.09 Overcast BKN070 OVC080 11 0 47% 75.95 0.0
04 23:15 SE 7 16.09 Overcast OVC080 11.5 -1.6 40% 75.95 0.0
04 22:55 E 7 16.09 Overcast OVC080 11.2 -1.5 42% 75.97 0.0
04 22:35 W 11 16.09 Overcast BKN085 OVC090 11.4 -1.5 41% 75.95 0.0
04 22:15 W 11 16.09 Overcast BKN095 OVC110 11.3 -1.4 42% 75.92 0.0
04 21:55 W 19 16.09 Overcast OVC110 11.5 -1.1 42% 75.92 0.0
04 21:35 W 19 G 28 16.09 Overcast OVC110 11.5 -1 42% 75.9 0.0
04 21:15 W 22 16.09 Partly Cloudy SCT110 11.7 -1.1 41% 75.9 0.0
04 20:55 W 24 G 35 16.09 Partly Cloudy SCT110 12 -1.2 40% 75.87 0.0
04 20:35 W 33 G 41 16.09 Mostly Cloudy and Breezy BKN110 12.6 -1.5 38% 75.87 0.0
04 20:15 W 30 G 46 16.09 Mostly Cloudy BKN110 13.5 -1.9 35% 75.84 0.0
04 19:55 W 35 G 44 16.09 Mostly Cloudy and Breezy BKN110 14.5 -1.9 32% 75.84 0.0
04 19:35 W 33 G 48 16.09 Mostly Cloudy and Breezy BKN100 16.2 -2.6 28% 75.82 0.0
04 19:15 W 26 G 33 16.09 Mostly Cloudy BKN100 18 -8.6 16% 75.79 0.0
04 18:55 W 24 G 33 16.09 Partly Cloudy SCT095 SCT120 19.3 -9 14% 75.79 0.0
04 18:35 W 26 G 33 16.09 Partly Cloudy SCT100 SCT120 19.9 -8.4 14% 75.79 0.0
04 18:15 W 22 G 33 16.09 Mostly Cloudy SCT100 BKN120 19.4 -8.6 14% 75.82 0.0
04 17:55 W 22 G 33 16.09 Partly Cloudy SCT080 19.6 -8.3 21.7 17.2 14% 75.82 0.0
04 17:35 W 31 G 41 16.09 Mostly Cloudy BKN090 BKN110 19.6 -8 15% 75.82 0.0
04 17:15 W 19 16.09 Mostly Cloudy BKN110 19.5 -9 14% 75.82 0.0
04 16:55 NW 9 G 30 16.09 Mostly Cloudy SCT100 BKN120 19.4 -9.1 14% 75.82 0.0
04 16:35 Calm 16.09 Partly Cloudy SCT100 18.3 -9.8 14% 75.82 0.0
04 16:15 N 9 16.09 Mostly Cloudy BKN100 20.8 -8.8 13% 75.82 0.0
04 15:55 W 31 G 46 16.09 Mostly Cloudy SCT085 BKN100 19.5 -9 14% 75.87 0.0
04 15:35 W 24 G 30 16.09 Partly Cloudy SCT100 20.6 -9.9 12% 75.87 0.0
04 15:15 NW 19 G 31 16.09 Fair CLR 20.5 -10.3 12% 75.87 0.0
04 14:55 NW 15 G 30 16.09 Fair CLR 19.9 -10.6 12% 75.9 0.0
04 14:35 W 17 G 33 16.09 Fair CLR 20.5 -10.1 12% 75.9 0.0
04 14:15 NW 20 G 31 16.09 Partly Cloudy SCT110 20.3 -10.6 11% 75.92 0.0
04 13:55 W 30 G 50 16.09 Mostly Cloudy BKN100 19.1 -10 13% 75.95 0.0
04 13:35 NW 15 16.09 Partly Cloudy SCT110 20.2 -10.7 11% 75.95 0.0
04 13:15 NW 17 G 28 16.09 Mostly Cloudy BKN100 20.2 -9.8 12% 75.97 0.0
04 12:55 NW 24 G 33 16.09 Mostly Cloudy BKN100 BKN120 19.2 -10 13% 75.97 0.0
04 12:35 Calm 16.09 Partly Cloudy SCT120 18.6 -10.6 13% 76 0.0
04 12:15 W 7 16.09 Partly Cloudy SCT120 17.7 -10 14% 76.02 0.0
04 11:55 W 11 G 19 16.09 Partly Cloudy SCT090 SCT120 17.8 -10.1 19 4.4 14% 76.05 0.0
04 11:35 E 9 16.09 Fair CLR 18.4 -9.7 14% 76.05 0.0
04 11:15 W 15 16.09 Fair CLR 17.8 -9.8 14% 76.07 0.0
04 10:55 N 7 16.09 Fair CLR 17.3 -8.7 16% 76.07 0.0
04 10:35 W 7 16.09 Fair CLR 17 -8.7 16% 76.07 0.0
04 10:15 W 13 16.09 Fair CLR 16.2 -7.6 19% 76.07 0.0
04 09:55 NW 17 16.09 Fair CLR 16.2 -6.7 20% 76.07 0.0
04 09:35 W 19 G 26 16.09 Fair CLR 15.4 -6.5 22% 76.1 0.0
04 09:15 W 19 16.09 Fair CLR 14.3 -6.4 23% 76.1 0.0
04 08:55 W 24 16.09 Fair CLR 13.6 -6.5 24% 76.12 0.0
04 08:35 W 11 16.09 Fair CLR 11.2 -6.1 29% 76.1 0.0
04 08:15 W 11 16.09 Fair CLR 8.9 -6.3 34% 7 76.12 0.0
04 07:55 W 9 16.09 Fair CLR 7 -6.1 39% 5 76.12 0.0
04 07:35 W 13 16.09 Fair CLR 8 -6.6 35% 6 76.1 0.0
04 07:15 W 13 16.09 Mostly Cloudy BKN120 8.8 -6.6 33% 7 76.1 0.0
04 06:55 SW 11 16.09 Overcast OVC120 8.3 -6.6 34% 7 76.07 0.0
04 06:35 W 11 16.09 Mostly Cloudy BKN120 7.1 -7.2 36% 5 76.07 0.0
04 06:15 SW 11 16.09 Partly Cloudy SCT120 4.6 -7.2 42% 2 76.07 0.0
04 05:55 W 7 16.09 Partly Cloudy SCT120 5.6 -7.1 12 5.6 40% 4 76.07 0.0
04 05:35 NW 7 16.09 Partly Cloudy SCT120 7 -6.7 37% 6 76.07 0.0
04 05:15 W 7 16.09 Partly Cloudy SCT120 5.9 -6.5 41% 5 76.07 0.0
04 04:55 S 9 16.09 Mostly Cloudy BKN120 8.1 -7.9 32% 7 76.07 0.0
04 04:35 W 6 16.09 Partly Cloudy SCT120 11.6 -7.5 26% 76.07 0.0
04 04:15 SW 11 16.09 Partly Cloudy SCT120 8.3 -7.5 32% 7 76.1 0.0
04 03:55 W 7 16.09 Fair CLR 8.1 -7.5 33% 7 76.07 0.0
04 03:35 SW 15 16.09 Fair CLR 7.6 -7.6 33% 5 76.1 0.0
04 03:15 SW 9 16.09 Fair CLR 7.4 -8 33% 6 76.1 0.0
04 02:55 SW 9 16.09 Fair CLR 6.8 -8 34% 5 76.1 0.0
04 02:35 SW 11 16.09 Fair CLR 7 -7.8 34% 5 76.15 0.0
04 02:15 SW 13 16.09 Fair CLR 7.4 -7.6 34% 5 76.15 0.0
04 01:55 SW 15 16.09 Fair CLR 6.7 -7.7 35% 4 76.15 0.0
04 01:35 SW 11 16.09 Fair CLR 9.2 -7.8 30% 8 76.17 0.0
04 01:15 W 9 16.09 Fair CLR 9.3 -7.1 31% 8 76.2 0.0
04 00:55 W 13 16.09 Fair CLR 8.1 -7.5 33% 6 76.2 0.0
04 00:35 W 13 16.09 Fair CLR 9.1 -7.6 30% 7 76.2 0.0
04 00:15 W 11 16.09 Fair CLR 9.2 -7.6 30% 8 76.2 0.0
03 23:55 W 9 16.09 Fair CLR 8.8 -7.8 20.8 8.6 30% 8 76.2 0.0
03 23:35 W 11 16.09 Fair CLR 9 -8.4 29% 8 76.23 0.0
03 23:15 W 9 16.09 Fair CLR 9.4 -8.6 27% 8 76.23 0.0
03 22:55 NW 7 16.09 Fair CLR 10 -8.5 27% 9 76.23 0.0
03 22:35 NW 7 16.09 Fair CLR 11 -9.4 23% 76.23 0.0
03 22:15 NW 11 16.09 Fair CLR 10.5 -11 21% 76.23 0.0
03 21:55 NW 11 16.09 Fair CLR 11.4 -11.3 19% 76.23 0.0
03 21:35 NW 7 16.09 Fair CLR 12.1 -11.8 18% 76.23 0.0
03 21:15 NW 7 16.09 Fair CLR 12.6 -12 17% 76.2 0.0
03 20:55 NW 9 16.09 Fair CLR 12.8 -12 17% 76.2 0.0
03 20:35 NW 13 16.09 Fair CLR 14.1 -12 15% 76.2 0.0
03 20:15 NW 13 16.09 Fair CLR 15.4 -11.8 14% 76.2 0.0
03 19:55 NW 13 16.09 Fair CLR 16.4 -11.7 13% 76.2 0.0
03 19:35 NW 13 16.09 Fair CLR 16.9 -11.6 13% 76.2 0.0
03 19:15 NW 24 16.09 Fair CLR 17.8 -11.6 12% 76.2 0.0
03 18:55 NW 22 G 31 16.09 Fair CLR 18.2 -11.9 12% 76.2 0.0
03 18:35 W 20 16.09 Fair CLR 18.6 -12 11% 76.23 0.0
03 18:15 NW 19 16.09 Partly Cloudy SCT110 19.5 -12 11% 76.23 0.0
03 17:55 NW 20 16.09 Overcast OVC110 19.7 -11.8 21.2 17.3 11% 76.23 0.0
03 17:35 NW 15 16.09 Overcast OVC110 19.4 -11.4 11% 76.23 0.0
03 17:15 W 19 G 30 16.09 Mostly Cloudy BKN110 19.2 -12.4 11% 76.23 0.0
03 16:55 W 19 G 35 16.09 Partly Cloudy SCT120 20 -12.2 10% 76.25 0.0
03 16:35 W 26 G 39 16.09 Partly Cloudy SCT110 20.6 -12.3 10% 76.25 0.0
03 16:15 W 13 16.09 Partly Cloudy SCT110 19.3 -12.7 10% 76.28 0.0
03 15:55 W 26 G 39 16.09 Fair CLR 20.1 -13.2 9% 76.3 0.0
03 15:35 NW 15 G 33 16.09 Partly Cloudy SCT120 21.2 -12.5 9% 76.33 0.0
03 15:15 W 15 G 30 16.09 Partly Cloudy SCT120 20.2 -13.1 9% 76.35 0.0
03 14:55 W 7 16.09 Partly Cloudy SCT120 19.9 -14.1 9% 76.35 0.0
03 14:35 NW 13 G 35 16.09 Partly Cloudy SCT120 19.5 -13.6 9% 76.38 0.0
03 14:15 NW 6 16.09 Partly Cloudy SCT110 19.5 -13.4 10% 76.4 0.0
03 13:55 W 31 G 37 16.09 Partly Cloudy SCT110 19.1 -13.7 10% 76.4 0.0
03 13:35 W 7 16.09 Mostly Cloudy BKN120 19.9 -13.6 9% 76.43 0.0
03 13:15 SW 17 G 30 16.09 Mostly Cloudy BKN120 18.6 -13.9 10% 76.45 0.0
03 12:55 N 6 G 28 16.09 Partly Cloudy SCT110 19.2 -13.5 10% 76.45 0.0
03 12:35 Calm 16.09 Partly Cloudy SCT120 18.5 -13.9 10% 76.48 0.0
03 12:15 NW 6 16.09 Fair CLR 17.5 -13.9 10% 76.5 0.0
03 11:55 SW 9 16.09 Fair CLR 17.9 -14.1 17.9 3.5 10% 76.53 0.0
03 11:35 Calm 16.09 Fair CLR 17.2 -15.3 10% 76.56 0.0
03 11:15 Calm 16.09 Fair CLR 17.1 -14.7 10% 76.56 0.0
03 10:55 Calm 16.09 Fair CLR 16.3 -15.1 10% 76.58 0.0
03 10:35 W 6 16.09 Fair CLR 16.5 -13.5 12% 76.61 0.0
03 10:15 Calm 16.09 Fair CLR 15.5 -12.6 13% 76.61 0.0
03 09:55 W 9 16.09 Fair CLR 15.4 -12.2 14% 76.61 0.0
03 09:35 W 11 16.09 Fair CLR 14.7 -9.6 18% 76.61 0.0
03 09:15 W 15 16.09 Fair CLR 13.8 -8.6 20% 76.63 0.0
03 08:55 W 11 16.09 Fair CLR 12.9 -8.6 22% 76.61 0.0
03 08:35 W 7 16.09 Fair CLR 11.5 -8.3 24% 76.61 0.0
03 08:15 W 9 16.09 Fair CLR 10.9 -8.7 25% 76.61 0.0
03 07:55 W 9 16.09 Fair CLR 9.4 -8.6 27% 8 76.61 0.0
03 07:35 W 6 16.09 Fair CLR 7.9 -8.3 31% 76.61 0.0
03 07:15 W 7 16.09 Fair CLR 6.5 -8 35% 5 76.61 0.0
03 06:55 W 11 16.09 Fair CLR 5.5 -8.7 36% 3 76.58 0.0
03 06:35 W 11 16.09 Fair CLR 4.6 -9 37% 2 76.56 0.0
03 06:15 W 15 16.09 Fair CLR 3.7 -8.5 41% 1 76.56 0.0
03 05:55 W 13 16.09 Fair CLR 3.7 -8.4 8.9 2.4 41% 1 76.56 0.0
03 05:35 W 11 16.09 Fair CLR 4.1 -8.3 40% 2 76.56 0.0
03 05:15 W 13 16.09 Fair CLR 4.4 -8.5 39% 2 76.61 0.0
03 04:55 W 17 16.09 Fair CLR 3.3 -8.4 42% -0 76.61 0.0
03 04:35 W 11 16.09 Fair CLR 3.1 -8 44% 0 76.61 0.0
03 04:15 W 15 16.09 Fair CLR 3.3 -8 44% 0 76.61 0.0
03 03:55 W 17 16.09 Fair CLR 2.6 -7.9 46% -1 76.61 0.0
03 03:35 W 11 16.09 Fair CLR 6.2 -9.9 31% 4 76.61 0.0
03 03:15 W 13 16.09 Fair CLR 6.4 -9.9 30% 4 76.61 0.0
03 02:55 W 13 16.09 Fair CLR 5.4 -10 32% 3 76.61 0.0
03 02:35 SW 13 16.09 Fair CLR 5.6 -10 32% 3 76.61 0.0
03 02:15 SW 13 16.09 Fair CLR 5.3 -9.9 33% 3 76.63 0.0
03 01:55 SW 13 16.09 Fair CLR 5.5 -10 32% 3 76.63 0.0
03 01:35 SW 15 16.09 Fair CLR 5.4 -10.1 32% 3 76.63 0.0
03 01:15 SW 13 16.09 Fair CLR 6.2 -10.2 30% 4 76.66 0.0
03 00:55 SW 19 16.09 Fair CLR 7.3 -10.3 28% 4 76.66 0.0
03 00:35 SW 17 16.09 Fair CLR 7.6 -10.1 28% 5 76.66 0.0
03 00:15 SW 17 16.09 Fair CLR 7.6 -10.3 27% 5 76.66 0.0
02 23:55 W 11 16.09 Fair CLR 8.7 -10 19.5 8.3 26% 7 76.66 0.0
02 23:35 W 13 16.09 Fair CLR 8.7 -10.1 26% 7 76.68 0.0
02 23:15 W 13 16.09 Fair CLR 8.5 -9.7 27% 7 76.68 0.0
02 22:55 W 13 16.09 Fair CLR 8.5 -9.5 27% 7 76.68 0.0
02 22:35 W 11 16.09 Fair CLR 9.5 -9.2 26% 8 76.68 0.0
02 22:15 W 9 16.09 Fair CLR 10.1 -9.2 25% 76.68 0.0
02 21:55 W 13 16.09 Fair CLR 10.4 -9.1 25% 76.66 0.0
02 21:35 W 11 16.09 Fair CLR 10.7 -9 24% 76.63 0.0
02 21:15 NW 13 16.09 Fair CLR 11.1 -9.2 23% 76.63 0.0
02 20:55 NW 11 16.09 Fair CLR 11.4 -9.4 22% 76.61 0.0
02 20:35 NW 13 16.09 Fair CLR 12.6 -9.3 21% 76.61 0.0
02 20:15 NW 17 16.09 Fair CLR 14.2 -9.8 18% 76.56 0.0
02 19:55 NW 17 16.09 Fair CLR 15.4 -10.3 16% 76.56 0.0
02 19:35 NW 19 16.09 Fair CLR 16.4 -12.7 12% 76.56 0.0
02 19:15 NW 20 G 31 16.09 Fair CLR 17.5 -13.2 11% 76.56 0.0
02 18:55 W 20 G 30 16.09 Fair CLR 18.2 -13.6 10% 76.53 0.0
02 18:35 W 26 G 39 16.09 Fair CLR 19.1 -13.7 10% 76.56 0.0
02 18:15 W 15 16.09 Fair CLR 19.3 -13.7 9% 76.56 0.0
02 17:55 W 17 G 26 16.09 Fair CLR 19.1 -13.9 20.1 15 9% 76.56 0.0
02 17:35 W 24 G 33 16.09 Fair CLR 19.9 -13.5 9% 76.58 0.0
02 17:15 W 13 G 41 16.09 Fair CLR 19.4 -13.1 10% 76.58 0.0
Date Time (mdt) Wind (kph) Vis. (km) Weather Sky Cond. Air Dwpt Max. Min. Relative Humidity Wind Chill (°C) Heat Index (°C) altimeter (cm) sea level (mb) 1 hr 3 hr 6 hr
6 hour
Temperature (ºC) Pressure Precipitation (cm)